Time;durP1;ratioP1;P1;durP2;ratioP2;P2;SDS_P1;SDS_P2;PMS_P1;PMS_P2;Temp;Humidity;BMP_temperature;BMP_pressure;BME280_temperature;BME280_humidity;BME280_pressure;Samples;Min_cycle;Max_cycle;Signal;HPM_P1;HPM_P2
2024/01/07 00:01:23;;;;;;;;;;;;;;;-144.99;100.00;67352.69;5048629;28;19920;-84
2024/01/07 00:03:48;;;;;;;;;;;;;;;-144.99;100.00;67352.69;5052553;28;20012;-83
2024/01/07 00:06:13;;;;;;;;;;;;;;;-144.99;100.00;67352.69;5052766;28;19913;-84
2024/01/07 00:08:38;;;;;;;;;;;;;;;-144.99;100.00;67352.69;5052996;28;20311;-84
2024/01/07 00:11:04;;;;;;;;;;;;;;;-144.99;100.00;67352.69;5052870;28;19920;-83
2024/01/07 00:13:29;;;;;;;;;;;;;;;-144.99;100.00;67352.69;5037570;28;19917;-84
2024/01/07 00:15:55;;;;;;;;;;;;;;;-144.99;100.00;67352.69;5037672;28;19921;-82
2024/01/07 00:18:21;;;;;;;;;;;;;;;-144.99;100.00;67352.69;5052679;28;19925;-83
2024/01/07 00:20:47;;;;;;;;;;;;;;;-144.99;100.00;67352.69;5037683;28;19914;-83
2024/01/07 00:23:12;;;;;;;;;;;;;;;-144.99;100.00;67352.69;5037333;28;19921;-84
2024/01/07 00:25:37;;;;;;;;;;;;;;;-144.99;100.00;67352.69;5037459;28;19952;-84
2024/01/07 00:28:02;;;;;;;;;;;;;;;-144.99;100.00;67352.69;5036790;28;20303;-83
2024/01/07 00:30:28;;;;;;;;;;;;;;;-144.99;100.00;67352.69;5052674;28;19913;-84
2024/01/07 00:32:53;;;;;;;;;;;;;;;-144.99;100.00;67352.69;5052177;28;19920;-84
2024/01/07 00:35:18;;;;;;;;;;;;;;;-144.99;100.00;67352.69;5052943;28;19913;-84
2024/01/07 00:37:43;;;;;;;;;;;;;;;-144.99;100.00;67352.69;5052432;28;19965;-84
2024/01/07 00:40:09;;;;;;;;;;;;;;;-144.99;100.00;67352.69;5051682;28;19913;-83
2024/01/07 00:42:34;;;;;;;;;;;;;;;-144.99;100.00;67352.69;5035388;28;19917;-83
2024/01/07 00:44:59;;;;;;;;;;;;;;;-144.99;100.00;67352.69;5035398;28;19917;-83
2024/01/07 00:47:24;;;;;;;;;;;;;;;-144.99;100.00;67352.69;5050487;28;19913;-84
2024/01/07 00:49:50;;;;;;;;;;;;;;;-144.99;100.00;67352.69;5052870;28;20315;-82
2024/01/07 00:52:15;;;;;;;;;;;;;;;-144.99;100.00;67352.69;5053844;28;19917;-84
2024/01/07 00:54:40;;;;;;;;;;;;;;;-144.99;100.00;67352.69;5054458;28;19921;-85
2024/01/07 00:57:05;;;;;;;;;;;;;;;-144.99;100.00;67352.69;5054870;28;19920;-83
2024/01/07 00:59:31;;;;;;;;;;;;;;;-144.99;100.00;67352.69;5039563;28;20000;-83
2024/01/07 01:01:56;;;;;;;;;;;;;;;-144.99;100.00;67352.69;5053858;28;20380;-83
2024/01/07 01:04:21;;;;;;;;;;;;;;;-144.99;100.00;67352.69;5038232;28;19995;-84
2024/01/07 01:06:47;;;;;;;;;;;;;;;-144.99;100.00;67352.69;5053918;28;19920;-85
2024/01/07 01:09:12;;;;;;;;;;;;;;;-144.99;100.00;67352.69;5038140;28;19963;-84
2024/01/07 01:11:37;;;;;;;;;;;;;;;-144.99;100.00;67352.69;5052930;28;19916;-84
2024/01/07 01:14:02;;;;;;;;;;;;;;;-144.99;100.00;67352.69;5049413;28;20395;-83
2024/01/07 01:16:28;;;;;;;;;;;;;;;-144.99;100.00;67352.69;5050217;28;19913;-84
2024/01/07 01:18:53;;;;;;;;;;;;;;;-144.99;100.00;67352.69;5050695;28;19917;-83
2024/01/07 01:21:18;;;;;;;;;;;;;;;-144.99;100.00;67352.69;5050590;28;19935;-83
2024/01/07 01:23:43;;;;;;;;;;;;;;;-144.99;100.00;67352.69;5051037;28;20284;-82
2024/01/07 01:26:09;;;;;;;;;;;;;;;-144.99;100.00;67352.69;5035364;28;19985;-83
2024/01/07 01:28:34;;;;;;;;;;;;;;;-144.99;100.00;67352.69;5050747;28;19913;-84
2024/01/07 01:30:59;;;;;;;;;;;;;;;-144.99;100.00;67352.69;5050935;28;19971;-82
2024/01/07 01:33:25;;;;;;;;;;;;;;;-144.99;100.00;67352.69;5050739;28;19971;-83
2024/01/07 01:35:50;;;;;;;;;;;;;;;-144.99;100.00;67352.69;5051101;28;19971;-83
2024/01/07 01:38:15;;;;;;;;;;;;;;;-144.99;100.00;67352.69;5051315;28;20004;-84
2024/01/07 01:40:40;;;;;;;;;;;;;;;-144.99;100.00;67352.69;5051520;28;19920;-83
2024/01/07 01:43:06;;;;;;;;;;;;;;;-144.99;100.00;67352.69;5036271;28;19949;-83
2024/01/07 01:45:31;;;;;;;;;;;;;;;-144.99;100.00;67352.69;5036002;28;19944;-84
2024/01/07 01:47:56;;;;;;;;;;;;;;;-144.99;100.00;67352.69;5051709;28;19913;-84
2024/01/07 01:50:22;;;;;;;;;;;;;;;-144.99;100.00;67352.69;5035965;28;19920;-84
2024/01/07 01:52:48;;;;;;;;;;;;;;;-144.99;100.00;67352.69;5051068;28;19928;-83
2024/01/07 01:55:13;;;;;;;;;;;;;;;-144.99;100.00;67352.69;5051485;28;20288;-84
2024/01/07 01:57:39;;;;;;;;;;;;;;;-144.99;100.00;67352.69;5051872;28;19924;-85
2024/01/07 02:00:05;;;;;;;;;;;;;;;-144.99;100.00;67352.69;5036760;28;19984;-83
2024/01/07 02:02:31;;;;;;;;;;;;;;;-144.99;100.00;67352.69;5037183;28;19917;-83
2024/01/07 02:04:56;;;;;;;;;;;;;;;-144.99;100.00;67352.69;5036519;28;20003;-84
2024/01/07 02:07:22;;;;;;;;;;;;;;;-144.99;100.00;67352.69;5051742;28;19956;-84
2024/01/07 02:09:47;;;;;;;;;;;;;;;-144.99;100.00;67352.69;5051925;28;19920;-84
2024/01/07 02:12:12;;;;;;;;;;;;;;;-144.99;100.00;67352.69;5051699;28;19921;-84
2024/01/07 02:14:38;;;;;;;;;;;;;;;-144.99;100.00;67352.69;5037010;28;19921;-84
2024/01/07 02:17:04;;;;;;;;;;;;;;;-144.99;100.00;67352.69;5051213;28;19944;-84
2024/01/07 02:19:29;;;;;;;;;;;;;;;-144.99;100.00;67352.69;5051243;28;19917;-83
2024/01/07 02:21:54;;;;;;;;;;;;;;;-144.99;100.00;67352.69;5051072;28;19917;-83
2024/01/07 02:24:20;;;;;;;;;;;;;;;-144.99;100.00;67352.69;5050986;28;19983;-83
2024/01/07 02:26:45;;;;;;;;;;;;;;;-144.99;100.00;67352.69;5036046;28;19914;-83
2024/01/07 02:29:10;;;;;;;;;;;;;;;-144.99;100.00;67352.69;5051515;28;19920;-83
2024/01/07 02:31:35;;;;;;;;;;;;;;;-144.99;100.00;67352.69;5050952;28;19920;-84
2024/01/07 02:34:00;;;;;;;;;;;;;;;-144.99;100.00;67352.69;5036714;28;20312;-83
2024/01/07 02:36:26;;;;;;;;;;;;;;;-144.99;100.00;67352.69;5052186;28;19921;-83
2024/01/07 02:38:51;;;;;;;;;;;;;;;-144.99;100.00;67352.69;5036533;28;19924;-84
2024/01/07 02:41:16;;;;;;;;;;;;;;;-144.99;100.00;67352.69;5050895;28;19917;-84
2024/01/07 02:43:42;;;;;;;;;;;;;;;-144.99;100.00;67352.69;5036474;28;19913;-83
2024/01/07 02:46:07;;;;;;;;;;;;;;;-144.99;100.00;67352.69;5051362;28;20376;-84
2024/01/07 02:48:32;;;;;;;;;;;;;;;-144.99;100.00;67352.69;5051988;28;19913;-84
2024/01/07 02:50:57;;;;;;;;;;;;;;;-144.99;100.00;67352.69;5051605;28;19917;-84
2024/01/07 02:53:23;;;;;;;;;;;;;;;-144.99;100.00;67352.69;5050945;28;19917;-83
2024/01/07 02:55:48;;;;;;;;;;;;;;;-144.99;100.00;67352.69;5051562;28;19917;-82
2024/01/07 02:58:13;;;;;;;;;;;;;;;-144.99;100.00;67352.69;5051483;28;19917;-84
2024/01/07 03:00:38;;;;;;;;;;;;;;;-144.99;100.00;67352.69;5036226;28;19913;-82
2024/01/07 03:03:04;;;;;;;;;;;;;;;-144.99;100.00;67352.69;5051077;28;19935;-84
2024/01/07 03:05:32;;;;;;;;;;;;;;;-144.99;100.00;67352.69;5050909;28;20059;-82
2024/01/07 03:07:57;;;;;;;;;;;;;;;-144.99;100.00;67352.69;5051415;28;19913;-83
2024/01/07 03:10:22;;;;;;;;;;;;;;;-144.99;100.00;67352.69;5035829;28;20390;-83
2024/01/07 03:12:48;;;;;;;;;;;;;;;-144.99;100.00;67352.69;5035875;28;19917;-82
2024/01/07 03:15:13;;;;;;;;;;;;;;;-144.99;100.00;67352.69;5035285;28;20289;-82
2024/01/07 03:17:38;;;;;;;;;;;;;;;-144.99;100.00;67352.69;5035299;28;19981;-83
2024/01/07 03:20:04;;;;;;;;;;;;;;;-144.99;100.00;67352.69;5050825;28;19936;-83
2024/01/07 03:22:29;;;;;;;;;;;;;;;-144.99;100.00;67352.69;5050408;28;19940;-81
2024/01/07 03:24:54;;;;;;;;;;;;;;;-144.99;100.00;67352.69;5050857;28;19920;-83
2024/01/07 03:27:19;;;;;;;;;;;;;;;-144.99;100.00;67352.69;5035963;28;19917;-80
2024/01/07 03:29:44;;;;;;;;;;;;;;;-144.99;100.00;67352.69;5050211;28;19920;-81
2024/01/07 03:32:10;;;;;;;;;;;;;;;-144.99;100.00;67352.69;5034605;28;20388;-82
2024/01/07 03:34:35;;;;;;;;;;;;;;;-144.99;100.00;67352.69;5050234;28;19913;-82
2024/01/07 03:37:00;;;;;;;;;;;;;;;-144.99;100.00;67352.69;5050758;28;19913;-82
2024/01/07 03:39:25;;;;;;;;;;;;;;;-144.99;100.00;67352.69;5038934;28;19917;-82
2024/01/07 03:41:54;;;;;;;;;;;;;;;-144.99;100.00;67352.69;5054301;28;19940;-82
2024/01/07 03:44:19;;;;;;;;;;;;;;;-144.99;100.00;67352.69;5038808;28;19972;-82
2024/01/07 03:46:44;;;;;;;;;;;;;;;-144.99;100.00;67352.69;5054429;28;19913;-82
2024/01/07 03:49:10;;;;;;;;;;;;;;;-144.99;100.00;67352.69;5053882;28;20352;-81
2024/01/07 03:51:35;;;;;;;;;;;;;;;-144.99;100.00;67352.69;5038285;28;20177;-80
2024/01/07 03:54:00;;;;;;;;;;;;;;;-144.99;100.00;67352.69;5039215;28;20298;-81
2024/01/07 03:56:25;;;;;;;;;;;;;;;-144.99;100.00;67352.69;5038694;28;20406;-80
2024/01/07 03:58:50;;;;;;;;;;;;;;;-144.99;100.00;67352.69;5038847;28;19945;-81
2024/01/07 04:01:17;;;;;;;;;;;;;;;-144.99;100.00;67352.69;5038494;28;19992;-79
2024/01/07 04:03:42;;;;;;;;;;;;;;;-144.99;100.00;67352.69;5038777;28;19913;-81
2024/01/07 04:06:10;;;;;;;;;;;;;;;-144.99;100.00;67352.69;5054064;28;20406;-80
2024/01/07 04:08:35;;;;;;;;;;;;;;;-144.99;100.00;67352.69;5038389;28;19913;-81
2024/01/07 04:11:01;;;;;;;;;;;;;;;-144.99;100.00;67352.69;5038488;28;20364;-81
2024/01/07 04:13:27;;;;;;;;;;;;;;;-144.99;100.00;67352.69;5053431;28;19913;-81
2024/01/07 04:15:52;;;;;;;;;;;;;;;-144.99;100.00;67352.69;5052511;28;19923;-80
2024/01/07 04:18:17;;;;;;;;;;;;;;;-144.99;100.00;67352.69;5054971;28;19920;-80
2024/01/07 04:20:42;;;;;;;;;;;;;;;-144.99;100.00;67352.69;5042088;28;20006;-81
2024/01/07 04:23:07;;;;;;;;;;;;;;;-144.99;100.00;67352.69;5040483;28;20004;-81
2024/01/07 04:25:33;;;;;;;;;;;;;;;-144.99;100.00;67352.69;5055986;28;19967;-81
2024/01/07 04:27:58;;;;;;;;;;;;;;;-144.99;100.00;67352.69;5040501;28;19913;-81
2024/01/07 04:30:23;;;;;;;;;;;;;;;-144.99;100.00;67352.69;5040430;28;19945;-81
2024/01/07 04:32:48;;;;;;;;;;;;;;;-144.99;100.00;67352.69;5055531;28;19914;-81
2024/01/07 04:35:13;;;;;;;;;;;;;;;-144.99;100.00;67352.69;5054244;28;20315;-81
2024/01/07 04:37:39;;;;;;;;;;;;;;;-144.99;100.00;67352.69;5039441;28;20481;-81
2024/01/07 04:40:04;;;;;;;;;;;;;;;-144.99;100.00;67352.69;5053903;28;19956;-80
2024/01/07 04:42:29;;;;;;;;;;;;;;;-144.99;100.00;67352.69;5034609;28;19913;-80
2024/01/07 04:44:55;;;;;;;;;;;;;;;-144.99;100.00;67352.69;5034731;28;19913;-80
2024/01/07 04:47:27;;;;;;;;;;;;;;;-144.99;100.00;67352.69;5034733;28;19940;-80
2024/01/07 04:49:53;;;;;;;;;;;;;;;-144.99;100.00;67352.69;5049959;28;19971;-79
2024/01/07 04:52:18;;;;;;;;;;;;;;;-144.99;100.00;67352.69;5049634;28;20409;-80
2024/01/07 04:54:43;;;;;;;;;;;;;;;-144.99;100.00;67352.69;5034690;28;20553;-80
2024/01/07 04:57:08;;;;;;;;;;;;;;;-144.99;100.00;67352.69;5034500;28;19944;-79
2024/01/07 04:59:33;;;;;;;;;;;;;;;-144.99;100.00;67352.69;5034356;28;19923;-80
2024/01/07 05:01:59;;;;;;;;;;;;;;;-144.99;100.00;67352.69;5049491;28;20299;-80
2024/01/07 05:04:24;;;;;;;;;;;;;;;-144.99;100.00;67352.69;5034381;28;19917;-79
2024/01/07 05:06:50;;;;;;;;;;;;;;;-144.99;100.00;67352.69;5034604;28;19913;-80
2024/01/07 05:09:15;;;;;;;;;;;;;;;-144.99;100.00;67352.69;5034145;28;19959;-79
2024/01/07 05:11:40;;;;;;;;;;;;;;;-144.99;100.00;67352.69;5034063;28;19924;-79
2024/01/07 05:14:05;;;;;;;;;;;;;;;-144.99;100.00;67352.69;5050253;28;19913;-79
2024/01/07 05:16:30;;;;;;;;;;;;;;;-144.99;100.00;67352.69;5049918;28;19913;-79
2024/01/07 05:18:55;;;;;;;;;;;;;;;-144.99;100.00;67352.69;5050057;28;19921;-80
2024/01/07 05:21:21;;;;;;;;;;;;;;;-144.99;100.00;67352.69;5034300;28;20387;-79
2024/01/07 05:23:46;;;;;;;;;;;;;;;-144.99;100.00;67352.69;5034831;28;19913;-79
2024/01/07 05:26:11;;;;;;;;;;;;;;;-144.99;100.00;67352.69;5034391;28;19913;-79
2024/01/07 05:28:37;;;;;;;;;;;;;;;-144.99;100.00;67352.69;5034683;28;19921;-79
2024/01/07 05:31:02;;;;;;;;;;;;;;;-144.99;100.00;67352.69;5049783;28;19913;-79
2024/01/07 05:33:27;;;;;;;;;;;;;;;-144.99;100.00;67352.69;5034000;28;19913;-79
2024/01/07 05:35:52;;;;;;;;;;;;;;;-144.99;100.00;67352.69;5049735;28;19920;-79
2024/01/07 05:38:17;;;;;;;;;;;;;;;-144.99;100.00;67352.69;5033956;28;20268;-79
2024/01/07 05:40:42;;;;;;;;;;;;;;;-144.99;100.00;67352.69;5033904;28;19913;-79
2024/01/07 05:43:08;;;;;;;;;;;;;;;-144.99;100.00;67352.69;5033554;28;19959;-79
2024/01/07 05:45:33;;;;;;;;;;;;;;;-144.99;100.00;67352.69;5033925;28;20008;-79
2024/01/07 05:47:58;;;;;;;;;;;;;;;-144.99;100.00;67352.69;5033985;28;19920;-79
2024/01/07 05:50:23;;;;;;;;;;;;;;;-144.99;100.00;67352.69;5049169;28;20601;-79
2024/01/07 05:52:48;;;;;;;;;;;;;;;-144.99;100.00;67352.69;5033301;28;19917;-79
2024/01/07 05:55:14;;;;;;;;;;;;;;;-144.99;100.00;67352.69;5033615;28;19975;-79
2024/01/07 05:57:39;;;;;;;;;;;;;;;-144.99;100.00;67352.69;5033665;28;19963;-79
2024/01/07 06:00:04;;;;;;;;;;;;;;;-144.99;100.00;67352.69;5048267;28;19913;-79
2024/01/07 06:02:30;;;;;;;;;;;;;;;-144.99;100.00;67352.69;5048376;28;20388;-79
2024/01/07 06:04:55;;;;;;;;;;;;;;;-144.99;100.00;67352.69;5048833;28;19914;-79
2024/01/07 06:07:20;;;;;;;;;;;;;;;-144.99;100.00;67352.69;5033583;28;19921;-79
2024/01/07 06:09:46;;;;;;;;;;;;;;;-144.99;100.00;67352.69;5048597;28;20418;-79
2024/01/07 06:12:11;;;;;;;;;;;;;;;-144.99;100.00;67352.69;5048614;28;19919;-79
2024/01/07 06:14:36;;;;;;;;;;;;;;;-144.99;100.00;67352.69;5048735;28;19940;-79
2024/01/07 06:17:01;;;;;;;;;;;;;;;-144.99;100.00;67352.69;5048668;28;20375;-79
2024/01/07 06:19:27;;;;;;;;;;;;;;;-144.99;100.00;67352.69;5048510;28;19924;-79
2024/01/07 06:21:52;;;;;;;;;;;;;;;-144.99;100.00;67352.69;5033250;28;20307;-79
2024/01/07 06:24:17;;;;;;;;;;;;;;;-144.99;100.00;67352.69;5033595;28;19913;-79
2024/01/07 06:26:42;;;;;;;;;;;;;;;-144.99;100.00;67352.69;5048486;28;19913;-78
2024/01/07 06:29:09;;;;;;;;;;;;;;;-144.99;100.00;67352.69;5033458;28;19913;-79
2024/01/07 06:31:34;;;;;;;;;;;;;;;-144.99;100.00;67352.69;5033333;28;19913;-78
2024/01/07 06:34:00;;;;;;;;;;;;;;;-144.99;100.00;67352.69;5033328;28;20291;-78
2024/01/07 06:36:26;;;;;;;;;;;;;;;-144.99;100.00;67352.69;5033341;28;20380;-78
2024/01/07 06:38:51;;;;;;;;;;;;;;;-144.99;100.00;67352.69;5048786;28;19924;-79
2024/01/07 06:41:16;;;;;;;;;;;;;;;-144.99;100.00;67352.69;5033127;28;19913;-79
2024/01/07 06:43:41;;;;;;;;;;;;;;;-144.99;100.00;67352.69;5032989;28;20351;-78
2024/01/07 06:46:06;;;;;;;;;;;;;;;-144.99;100.00;67352.69;5048310;28;19913;-79
2024/01/07 06:48:32;;;;;;;;;;;;;;;-144.99;100.00;67352.69;5048555;28;19974;-78
2024/01/07 06:50:57;;;;;;;;;;;;;;;-144.99;100.00;67352.69;5033172;28;20004;-78
2024/01/07 06:53:22;;;;;;;;;;;;;;;-144.99;100.00;67352.69;5032857;28;20288;-78
2024/01/07 06:55:48;;;;;;;;;;;;;;;-144.99;100.00;67352.69;5048292;28;19913;-78
2024/01/07 06:58:13;;;;;;;;;;;;;;;-144.99;100.00;67352.69;5032723;28;20391;-78
2024/01/07 07:00:38;;;;;;;;;;;;;;;-144.99;100.00;67352.69;5032980;28;19920;-79
2024/01/07 07:03:05;;;;;;;;;;;;;;;-144.99;100.00;67352.69;5047870;28;20371;-78
2024/01/07 07:05:30;;;;;;;;;;;;;;;-144.99;100.00;67352.69;5048132;28;19924;-79
2024/01/07 07:07:55;;;;;;;;;;;;;;;-144.99;100.00;67352.69;5047952;28;19917;-79
2024/01/07 07:10:20;;;;;;;;;;;;;;;-144.99;100.00;67352.69;5033842;28;19921;-80
2024/01/07 07:12:45;;;;;;;;;;;;;;;-144.99;100.00;67352.69;5034138;28;20326;-80
2024/01/07 07:15:10;;;;;;;;;;;;;;;-144.99;100.00;67352.69;5035375;28;19979;-80
2024/01/07 07:17:39;;;;;;;;;;;;;;;-144.99;100.00;67352.69;5050159;28;19913;-81
2024/01/07 07:20:05;;;;;;;;;;;;;;;-144.99;100.00;67352.69;5049255;28;19919;-80
2024/01/07 07:22:30;;;;;;;;;;;;;;;-144.99;100.00;67352.69;5049462;28;19982;-80
2024/01/07 07:24:56;;;;;;;;;;;;;;;-144.99;100.00;67352.69;5049858;28;19917;-79
2024/01/07 07:27:21;;;;;;;;;;;;;;;-144.99;100.00;67352.69;5049879;28;19975;-80
2024/01/07 07:29:46;;;;;;;;;;;;;;;-144.99;100.00;67352.69;5050303;28;19914;-84
2024/01/07 07:32:11;;;;;;;;;;;;;;;-144.99;100.00;67352.69;5050070;28;20004;-83
2024/01/07 07:34:37;;;;;;;;;;;;;;;-144.99;100.00;67352.69;5050263;28;19952;-80
2024/01/07 07:37:02;;;;;;;;;;;;;;;-144.99;100.00;67352.69;5049707;28;19920;-80
2024/01/07 07:39:27;;;;;;;;;;;;;;;-144.99;100.00;67352.69;5049738;28;19913;-80
2024/01/07 07:41:52;;;;;;;;;;;;;;;-144.99;100.00;67352.69;5034111;28;19913;-79
2024/01/07 07:44:18;;;;;;;;;;;;;;;-144.99;100.00;67352.69;5049819;28;19913;-79
2024/01/07 07:46:43;;;;;;;;;;;;;;;-144.99;100.00;67352.69;5034412;28;19913;-79
2024/01/07 07:49:08;;;;;;;;;;;;;;;-144.99;100.00;67352.69;5049334;28;20387;-78
2024/01/07 07:51:33;;;;;;;;;;;;;;;-144.99;100.00;67352.69;5033949;28;19917;-79
2024/01/07 07:53:59;;;;;;;;;;;;;;;-144.99;100.00;67352.69;5049116;28;19913;-80
2024/01/07 07:56:24;;;;;;;;;;;;;;;-144.99;100.00;67352.69;5034090;28;19917;-79
2024/01/07 07:58:49;;;;;;;;;;;;;;;-144.99;100.00;67352.69;5033814;28;19920;-78
2024/01/07 08:01:14;;;;;;;;;;;;;;;-144.99;100.00;67352.69;5048997;28;19933;-78
2024/01/07 08:03:40;;;;;;;;;;;;;;;-144.99;100.00;67352.69;5033783;28;19937;-78
2024/01/07 08:06:05;;;;;;;;;;;;;;;-144.99;100.00;67352.69;5048206;28;19913;-80
2024/01/07 08:08:30;;;;;;;;;;;;;;;-144.99;100.00;67352.69;5033121;28;19928;-79
2024/01/07 08:10:55;;;;;;;;;;;;;;;-144.99;100.00;67352.69;5032679;28;19967;-81
2024/01/07 08:13:20;;;;;;;;;;;;;;;-144.99;100.00;67352.69;5033211;28;19985;-79
2024/01/07 08:15:46;;;;;;;;;;;;;;;-144.99;100.00;67352.69;5030784;28;20311;-79
2024/01/07 08:18:11;;;;;;;;;;;;;;;-144.99;100.00;67352.69;5047691;28;20490;-78
2024/01/07 08:20:36;;;;;;;;;;;;;;;-144.99;100.00;67352.69;5032853;28;19913;-78
2024/01/07 08:23:01;;;;;;;;;;;;;;;-144.99;100.00;67352.69;5032500;28;19913;-78
2024/01/07 08:25:26;;;;;;;;;;;;;;;-144.99;100.00;67352.69;5036137;28;19920;-78
2024/01/07 08:27:52;;;;;;;;;;;;;;;-144.99;100.00;67352.69;5048032;28;20307;-78
2024/01/07 08:30:17;;;;;;;;;;;;;;;-144.99;100.00;67352.69;5034741;28;19913;-78
2024/01/07 08:32:42;;;;;;;;;;;;;;;-144.99;100.00;67352.69;5051069;28;20303;-78
2024/01/07 08:35:07;;;;;;;;;;;;;;;-144.99;100.00;67352.69;5050976;28;20395;-78
2024/01/07 08:37:33;;;;;;;;;;;;;;;-144.99;100.00;67352.69;5036424;28;20372;-78
2024/01/07 08:39:59;;;;;;;;;;;;;;;-144.99;100.00;67352.69;5035705;28;19919;-78
2024/01/07 08:42:24;;;;;;;;;;;;;;;-144.99;100.00;67352.69;5035912;28;19913;-78
2024/01/07 08:44:49;;;;;;;;;;;;;;;-144.99;100.00;67352.69;5051185;28;20004;-78
2024/01/07 08:47:15;;;;;;;;;;;;;;;-144.99;100.00;67352.69;5051398;28;19917;-78
2024/01/07 08:49:40;;;;;;;;;;;;;;;-144.99;100.00;67352.69;5035718;28;19943;-78
2024/01/07 08:52:05;;;;;;;;;;;;;;;-144.99;100.00;67352.69;5035776;28;19956;-78
2024/01/07 08:54:30;;;;;;;;;;;;;;;-144.99;100.00;67352.69;5051428;28;19962;-78
2024/01/07 08:56:55;;;;;;;;;;;;;;;-144.99;100.00;67352.69;5036305;28;19959;-78
2024/01/07 08:59:21;;;;;;;;;;;;;;;-144.99;100.00;67352.69;5036011;28;19921;-78
2024/01/07 09:01:46;;;;;;;;;;;;;;;-144.99;100.00;67352.69;5051298;28;19936;-78
2024/01/07 09:04:11;;;;;;;;;;;;;;;-144.99;100.00;67352.69;5051788;28;19913;-79
2024/01/07 09:06:37;;;;;;;;;;;;;;;-144.99;100.00;67352.69;5033347;28;19967;-78
2024/01/07 09:09:05;;;;;;;;;;;;;;;-144.99;100.00;67352.69;5047182;28;19929;-79
2024/01/07 09:11:31;;;;;;;;;;;;;;;-144.99;100.00;67352.69;5034898;28;19999;-80
2024/01/07 09:13:56;;;;;;;;;;;;;;;-144.99;100.00;67352.69;5034700;28;19948;-79
2024/01/07 09:16:21;;;;;;;;;;;;;;;-144.99;100.00;67352.69;5049792;28;19928;-79
2024/01/07 09:18:46;;;;;;;;;;;;;;;-144.99;100.00;67352.69;5049830;28;19959;-79
2024/01/07 09:21:12;;;;;;;;;;;;;;;-144.99;100.00;67352.69;5049822;28;19913;-79
2024/01/07 09:23:37;;;;;;;;;;;;;;;-144.99;100.00;67352.69;5049769;28;19980;-79
2024/01/07 09:26:02;;;;;;;;;;;;;;;-144.99;100.00;67352.69;5049557;28;19913;-78
2024/01/07 09:28:27;;;;;;;;;;;;;;;-144.99;100.00;67352.69;5034203;28;19924;-79
2024/01/07 09:30:52;;;;;;;;;;;;;;;-144.99;100.00;67352.69;5049742;28;19914;-78
2024/01/07 09:33:18;;;;;;;;;;;;;;;-144.99;100.00;67352.69;5034131;28;19960;-78
2024/01/07 09:35:43;;;;;;;;;;;;;;;-144.99;100.00;67352.69;5049131;28;19916;-79
2024/01/07 09:38:08;;;;;;;;;;;;;;;-144.99;100.00;67352.69;5035695;28;19959;-79
2024/01/07 09:40:34;;;;;;;;;;;;;;;-144.99;100.00;67352.69;5035196;28;19913;-79
2024/01/07 09:42:59;;;;;;;;;;;;;;;-144.99;100.00;67352.69;5050478;28;19917;-80
2024/01/07 09:45:25;;;;;;;;;;;;;;;-144.99;100.00;67352.69;5050358;28;19920;-80
2024/01/07 09:47:50;;;;;;;;;;;;;;;-144.99;100.00;67352.69;5050629;28;20007;-79
2024/01/07 09:50:16;;;;;;;;;;;;;;;-144.99;100.00;67352.69;5035472;28;19917;-79
2024/01/07 09:52:43;;;;;;;;;;;;;;;-144.99;100.00;67352.69;5034603;28;19927;-79
2024/01/07 09:55:09;;;;;;;;;;;;;;;-144.99;100.00;67352.69;5043213;28;20439;-79
2024/01/07 09:57:34;;;;;;;;;;;;;;;-144.99;100.00;67352.69;5048379;28;19912;-78
2024/01/07 10:00:01;;;;;;;;;;;;;;;-144.99;100.00;67352.69;5048032;28;19940;-79
2024/01/07 10:02:26;;;;;;;;;;;;;;;-144.99;100.00;67352.69;5029918;28;19913;-80
2024/01/07 10:04:51;;;;;;;;;;;;;;;-144.99;100.00;67352.69;5035960;28;20299;-80
2024/01/07 10:07:17;;;;;;;;;;;;;;;-144.99;100.00;67352.69;5036402;28;19924;-80
2024/01/07 10:09:43;;;;;;;;;;;;;;;-144.99;100.00;67352.69;5050309;28;19921;-80
2024/01/07 10:12:08;;;;;;;;;;;;;;;-144.99;100.00;67352.69;5036018;28;20370;-80
2024/01/07 10:14:33;;;;;;;;;;;;;;;-144.99;100.00;67352.69;5035322;28;19913;-79
2024/01/07 10:16:59;;;;;;;;;;;;;;;-144.99;100.00;67352.69;5050830;28;20307;-80
2024/01/07 10:19:24;;;;;;;;;;;;;;;-144.99;100.00;67352.69;5035367;28;19920;-78
2024/01/07 10:22:02;;;;;;;;;;;;;;;-144.99;100.00;67352.69;5036073;28;19917;-79
2024/01/07 10:24:40;;;;;;;;;;;;;;;-144.99;100.00;67352.69;5049520;28;20494;-79
2024/01/07 10:27:06;;;;;;;;;;;;;;;-144.99;100.00;67352.69;5051053;28;19917;-80
2024/01/07 10:29:31;;;;;;;;;;;;;;;-144.99;100.00;67352.69;5035297;28;19924;-80
2024/01/07 10:32:04;;;;;;;;;;;;;;;-144.99;100.00;67352.69;5050455;28;19988;-79
2024/01/07 10:34:34;;;;;;;;;;;;;;;-144.99;100.00;67352.69;5034989;28;19920;-79
2024/01/07 10:37:00;;;;;;;;;;;;;;;-144.99;100.00;67352.69;5035711;28;19924;-79
2024/01/07 10:39:25;;;;;;;;;;;;;;;-144.99;100.00;67352.69;5034280;28;19947;-80
2024/01/07 10:41:53;;;;;;;;;;;;;;;-144.99;100.00;67352.69;5049471;28;19928;-84
2024/01/07 10:44:19;;;;;;;;;;;;;;;-144.99;100.00;67352.69;5049741;28;19913;-81
2024/01/07 10:46:45;;;;;;;;;;;;;;;-144.99;100.00;67352.69;5034843;28;19952;-77
2024/01/07 10:49:19;;;;;;;;;;;;;;;-144.99;100.00;67352.69;5033634;28;19917;-80
2024/01/07 10:51:45;;;;;;;;;;;;;;;-144.99;100.00;67352.69;5049651;28;19925;-80
2024/01/07 10:54:13;;;;;;;;;;;;;;;-144.99;100.00;67352.69;5033817;28;20241;-79
2024/01/07 10:56:45;;;;;;;;;;;;;;;-144.99;100.00;67352.69;5048836;28;20062;-79
2024/01/07 10:59:10;;;;;;;;;;;;;;;-144.99;100.00;67352.69;5029591;28;19971;-78
2024/01/07 11:01:35;;;;;;;;;;;;;;;-144.99;100.00;67352.69;5034060;28;19921;-78
2024/01/07 11:04:17;;;;;;;;;;;;;;;-144.99;100.00;67352.69;5027940;28;19921;-78
2024/01/07 11:07:02;;;;;;;;;;;;;;;-144.99;100.00;67352.69;5028294;28;19913;-78
2024/01/07 11:09:39;;;;;;;;;;;;;;;-144.99;100.00;67352.69;5032256;28;20410;-78
2024/01/07 11:12:05;;;;;;;;;;;;;;;-144.99;100.00;67352.69;5044752;28;19917;-79
2024/01/07 11:14:42;;;;;;;;;;;;;;;-144.99;100.00;67352.69;5044616;28;19955;-78
2024/01/07 11:17:08;;;;;;;;;;;;;;;-144.99;100.00;67352.69;5039419;28;19937;-79
2024/01/07 11:19:34;;;;;;;;;;;;;;;-144.99;100.00;67352.69;5043612;28;19917;-79
2024/01/07 11:22:18;;;;;;;;;;;;;;;-144.99;100.00;67352.69;5047858;28;19917;-78
2024/01/07 11:24:44;;;;;;;;;;;;;;;-144.99;100.00;67352.69;5038762;28;19918;-79
2024/01/07 11:27:09;;;;;;;;;;;;;;;-144.99;100.00;67352.69;5031546;28;19981;-78
2024/01/07 11:29:35;;;;;;;;;;;;;;;-144.99;100.00;67352.69;5043260;28;19928;-80
2024/01/07 11:32:00;;;;;;;;;;;;;;;-144.99;100.00;67352.69;5026982;28;19917;-80
2024/01/07 11:34:39;;;;;;;;;;;;;;;-144.99;100.00;67352.69;5032424;28;20260;-80
2024/01/07 11:37:07;;;;;;;;;;;;;;;-144.99;100.00;67352.69;5033170;28;19913;-78
2024/01/07 11:39:33;;;;;;;;;;;;;;;-144.99;100.00;67352.69;5048026;28;19917;-78
2024/01/07 11:42:01;;;;;;;;;;;;;;;-144.99;100.00;67352.69;5032155;28;20340;-80
2024/01/07 11:44:26;;;;;;;;;;;;;;;-144.99;100.00;67352.69;5032542;28;19968;-78
2024/01/07 11:46:51;;;;;;;;;;;;;;;-144.99;100.00;67352.69;5031695;28;19952;-77
2024/01/07 11:49:17;;;;;;;;;;;;;;;-144.99;100.00;67352.69;5047346;28;19918;-77
2024/01/07 11:51:42;;;;;;;;;;;;;;;-144.99;100.00;67352.69;5031673;28;19917;-78
2024/01/07 11:54:08;;;;;;;;;;;;;;;-144.99;100.00;67352.69;5031997;28;19920;-78
2024/01/07 11:56:33;;;;;;;;;;;;;;;-144.99;100.00;67352.69;5032008;28;20328;-78
2024/01/07 11:58:59;;;;;;;;;;;;;;;-144.99;100.00;67352.69;5049165;28;19913;-78
2024/01/07 12:01:26;;;;;;;;;;;;;;;-144.99;100.00;67352.69;5051485;28;19920;-78
2024/01/07 12:03:51;;;;;;;;;;;;;;;-144.99;100.00;67352.69;5036013;28;19917;-78
2024/01/07 12:06:16;;;;;;;;;;;;;;;-144.99;100.00;67352.69;5051347;28;20444;-78
2024/01/07 12:08:42;;;;;;;;;;;;;;;-144.99;100.00;67352.69;5036138;28;19921;-78
2024/01/07 12:11:08;;;;;;;;;;;;;;;-144.99;100.00;67352.69;5036283;28;20000;-78